Time;durP1;ratioP1;P1;durP2;ratioP2;P2;SDS_P1;SDS_P2;PMS_P1;PMS_P2;Temp;Humidity;BMP_temperature;BMP_pressure;BME280_temperature;BME280_humidity;BME280_pressure;Samples;Min_cycle;Max_cycle;Signal;HPM_P1;HPM_P2
2022/09/29 00:01:25;;;;;;;;;4.00;3.00;;;;;13.14;64.74;99432.41;4996998;28;45377;-58
2022/09/29 00:03:51;;;;;;;;;2.25;2.25;;;;;13.17;64.70;99436.56;4996253;28;45382;-54
2022/09/29 00:06:17;;;;;;;;;5.00;3.00;;;;;13.17;64.73;99430.25;4996252;28;45341;-55
2022/09/29 00:08:43;;;;;;;;;3.00;3.00;;;;;13.17;64.81;99427.47;4978557;28;45410;-55
2022/09/29 00:11:13;;;;;;;;;4.50;4.50;;;;;13.18;65.32;99429.13;4996802;28;45516;-56
2022/09/29 00:13:38;;;;;;;;;3.00;3.00;;;;;13.15;64.56;99423.03;4978537;28;45615;-53
2022/09/29 00:16:04;;;;;;;;;2.00;2.00;;;;;12.68;65.02;99346.59;4996518;28;45474;-55
2022/09/29 00:18:30;;;;;;;;;3.25;3.25;;;;;13.17;64.50;99427.47;4978947;28;45433;-56
2022/09/29 00:21:10;;;;;;;;;2.80;2.80;;;;;13.06;64.37;99416.34;4998293;28;47525;-55
2022/09/29 00:23:36;;;;;;;;;9.80;6.80;;;;;13.13;64.93;99416.16;4998151;28;45681;-58
2022/09/29 00:26:09;;;;;;;;;4.00;4.00;;;;;13.13;64.75;99424.44;4998408;28;45495;-56
2022/09/29 00:28:36;;;;;;;;;3.00;3.00;;;;;13.13;64.70;99419.72;5016212;28;45559;-55
2022/09/29 00:31:02;;;;;;;;;3.00;3.00;;;;;13.08;64.77;99416.91;5016236;28;45439;-56
2022/09/29 00:33:29;;;;;;;;;2.60;2.20;;;;;12.97;65.06;99424.25;4981442;28;48845;-55
2022/09/29 00:36:01;;;;;;;;;2.60;1.60;;;;;12.85;65.44;99420.81;5015905;28;46083;-55
2022/09/29 00:38:27;;;;;;;;;2.40;2.40;;;;;12.70;65.32;99388.47;5016498;28;45385;-57
2022/09/29 00:40:53;;;;;;;;;3.25;2.25;;;;;13.02;65.11;99427.06;4998424;28;45510;-57
2022/09/29 00:43:21;;;;;;;;;2.50;1.75;;;;;13.07;64.42;99415.25;4969401;28;45850;-57
2022/09/29 00:45:47;;;;;;;;;4.00;1.20;;;;;13.07;64.21;99426.28;5015699;28;45376;-55
2022/09/29 00:48:16;;;;;;;;;2.80;2.80;;;;;12.92;65.25;99415.94;4998184;28;45360;-56
2022/09/29 00:50:51;;;;;;;;;2.00;2.00;;;;;12.83;64.85;99389.97;5016539;28;45509;-53
2022/09/29 00:53:17;;;;;;;;;2.00;2.00;;;;;13.05;64.51;99408.34;4998094;28;46927;-55
2022/09/29 00:55:52;;;;;;;;;2.60;2.00;;;;;13.04;64.56;99404.78;4998077;28;45486;-56
2022/09/29 00:58:31;;;;;;;;;2.40;2.40;;;;;13.09;64.43;99409.50;4981324;28;45429;-55
2022/09/29 01:00:58;;;;;;;;;2.80;2.80;;;;;12.32;63.84;99281.88;5016197;28;45339;-57
2022/09/29 01:03:27;;;;;;;;;4.20;3.20;;;;;12.91;64.34;99372.97;4981223;28;46993;-54
2022/09/29 01:05:56;;;;;;;;;3.40;2.00;;;;;12.50;63.90;99310.13;4998419;28;45310;-55
2022/09/29 01:08:24;;;;;;;;;1.00;1.00;;;;;13.07;63.90;99411.69;5015723;28;45360;-55
2022/09/29 01:10:50;;;;;;;;;1.00;1.00;;;;;13.07;63.83;99409.75;5015673;28;45362;-54
2022/09/29 01:13:16;;;;;;;;;1.25;1.25;;;;;13.05;64.13;99402.84;4997638;28;46090;-54
2022/09/29 01:15:41;;;;;;;;;2.00;2.00;;;;;13.09;64.21;99399.31;5015178;28;45412;-55
2022/09/29 01:18:07;;;;;;;;;2.00;2.00;;;;;13.03;64.13;99383.84;4997552;28;45483;-55
2022/09/29 01:20:34;;;;;;;;;2.25;2.25;;;;;13.12;63.87;99395.19;5015414;28;45317;-59
2022/09/29 01:23:22;;;;;;;;;2.40;2.40;;;;;13.08;64.07;99392.13;4997485;28;45566;-54
2022/09/29 01:26:11;;;;;;;;;2.20;2.20;;;;;13.04;63.75;99371.72;5015264;28;45363;-56
2022/09/29 01:29:00;;;;;;;;;4.00;1.40;;;;;13.11;64.01;99383.34;4994120;28;45382;-54
2022/09/29 01:31:49;;;;;;;;;2.00;2.00;;;;;13.10;64.47;99378.09;4993999;28;45434;-56
2022/09/29 01:34:17;;;;;;;;;2.00;1.00;;;;;13.12;63.97;99381.41;4977332;28;46863;-56
2022/09/29 01:37:04;;;;;;;;;2.20;2.20;;;;;13.13;64.04;99374.84;4993528;28;45466;-55
2022/09/29 01:39:41;;;;;;;;;2.00;2.00;;;;;13.14;63.47;99379.25;4995088;28;45513;-55
2022/09/29 01:42:10;;;;;;;;;2.20;1.20;;;;;13.00;63.63;99376.09;4994129;28;45363;-55
2022/09/29 01:44:53;;;;;;;;;2.00;2.00;;;;;12.88;64.08;99376.25;4965564;28;46167;-54
2022/09/29 01:47:30;;;;;;;;;3.00;1.00;;;;;12.73;63.83;99372.28;4969333;28;45338;-54
2022/09/29 01:50:01;;;;;;;;;2.00;2.00;;;;;12.80;64.18;99385.81;4971990;28;45392;-54
2022/09/29 01:52:29;;;;;;;;;2.00;1.60;;;;;12.90;64.22;99387.03;4972863;28;45618;-54
2022/09/29 01:55:08;;;;;;;;;2.60;2.60;;;;;12.92;64.25;99388.41;4955738;28;47989;-55
2022/09/29 01:57:37;;;;;;;;;3.60;3.60;;;;;12.94;64.31;99391.75;4971304;28;45431;-54
2022/09/29 02:00:07;;;;;;;;;4.20;2.40;;;;;12.75;64.37;99363.72;4973919;28;45388;-56
2022/09/29 02:02:57;;;;;;;;;3.00;2.00;;;;;12.90;64.16;99382.34;4974017;28;45500;-54
2022/09/29 02:05:32;;;;;;;;;2.00;2.00;;;;;12.90;64.44;99381.53;4973582;28;46376;-54
2022/09/29 02:08:01;;;;;;;;;3.00;3.00;;;;;12.93;64.27;99384.59;4957623;28;45394;-55
2022/09/29 02:10:39;;;;;;;;;4.60;2.00;;;;;12.59;64.42;99346.22;4973877;28;45351;-54
2022/09/29 02:13:05;;;;;;;;;1.40;1.40;;;;;12.96;64.56;99395.06;4975068;28;45590;-54
2022/09/29 02:15:32;;;;;;;;;3.25;2.75;;;;;12.99;64.38;99388.19;4957507;28;46639;-53
2022/09/29 02:18:01;;;;;;;;;3.40;2.00;;;;;12.80;64.36;99358.28;4974854;28;45446;-55
2022/09/29 02:20:27;;;;;;;;;1.20;1.20;;;;;13.02;64.57;99387.66;4957670;28;45447;-54
2022/09/29 02:22:52;;;;;;;;;3.50;3.50;;;;;13.02;64.27;99396.78;4987160;28;45411;-59
2022/09/29 02:25:18;;;;;;;;;3.00;3.00;;;;;12.98;64.10;99394.81;4976475;28;47742;-54
2022/09/29 02:27:45;;;;;;;;;2.75;1.00;;;;;12.69;64.34;99367.53;4976823;28;45549;-55
2022/09/29 02:30:10;;;;;;;;;2.60;1.40;;;;;12.92;64.62;99398.59;4993457;28;45446;-54
2022/09/29 02:32:36;;;;;;;;;4.00;2.75;;;;;12.96;64.69;99395.06;4993853;28;45267;-53
2022/09/29 02:35:04;;;;;;;;;3.25;3.25;;;;;12.96;64.41;99392.31;4994420;28;46028;-53
2022/09/29 02:38:03;;;;;;;;;3.00;3.00;;;;;12.82;64.40;99367.09;4977677;28;45429;-53
2022/09/29 02:40:35;;;;;;;;;1.00;1.00;;;;;12.94;64.22;99379.88;4993529;28;45532;-54
2022/09/29 02:43:17;;;;;;;;;3.20;3.20;;;;;12.81;64.35;99370.94;4994945;28;45211;-55
2022/09/29 02:46:10;;;;;;;;;1.80;1.80;;;;;12.86;64.06;99392.22;4993057;28;46672;-52
2022/09/29 02:48:51;;;;;;;;;1.40;1.40;;;;;12.74;64.99;99387.69;4994662;28;45385;-53
2022/09/29 02:51:23;;;;;;;;;1.00;1.00;;;;;12.64;65.04;99390.34;4993252;28;45332;-55
2022/09/29 02:54:17;;;;;;;;;1.60;1.60;;;;;12.53;65.26;99380.31;4995006;28;45307;-55
2022/09/29 02:56:51;;;;;;;;;2.20;1.40;;;;;12.67;65.27;99381.56;4980879;28;45672;-51
2022/09/29 02:59:20;;;;;;;;;2.80;2.20;;;;;12.73;64.81;99377.78;4996470;28;45459;-54
2022/09/29 03:01:48;;;;;;;;;3.00;2.00;;;;;12.74;65.05;99382.19;4995287;28;45745;-54
2022/09/29 03:04:13;;;;;;;;;4.40;3.60;;;;;12.63;64.89;99352.88;4997819;28;45544;-55
2022/09/29 03:06:39;;;;;;;;;3.00;2.00;;;;;12.81;64.81;99379.22;4997745;28;46441;-54
2022/09/29 03:09:04;;;;;;;;;2.00;2.00;;;;;12.85;64.96;99377.63;4997463;28;45341;-54
2022/09/29 03:11:30;;;;;;;;;3.25;3.25;;;;;12.60;64.92;99328.66;4996552;28;45454;-54
2022/09/29 03:13:55;;;;;;;;;2.00;2.00;;;;;12.87;64.89;99369.91;4997837;28;45524;-56
2022/09/29 03:16:21;;;;;;;;;3.00;1.00;;;;;12.90;64.96;99365.00;4997235;28;45757;-54
2022/09/29 03:18:46;;;;;;;;;2.00;2.00;;;;;12.93;64.87;99367.22;4996060;28;46131;-55
2022/09/29 03:21:12;;;;;;;;;2.00;2.00;;;;;12.74;64.70;99338.16;4997484;28;45398;-55
2022/09/29 03:23:38;;;;;;;;;2.75;1.50;;;;;12.97;65.01;99373.88;4995837;28;45335;-53
2022/09/29 03:26:04;;;;;;;;;3.20;3.00;;;;;12.95;64.83;99379.63;4995982;28;46348;-53
2022/09/29 03:28:29;;;;;;;;;4.00;2.75;;;;;12.86;65.45;99368.25;5010112;28;45436;-53
2022/09/29 03:30:55;;;;;;;;;2.75;2.00;;;;;12.80;65.62;99362.97;5016697;28;45270;-53
2022/09/29 03:33:20;;;;;;;;;3.50;3.50;;;;;12.84;65.48;99353.94;5016933;28;45329;-53
2022/09/29 03:35:46;;;;;;;;;1.75;1.75;;;;;12.91;65.57;99366.66;5016567;28;46023;-54
2022/09/29 03:38:11;;;;;;;;;3.75;3.00;;;;;12.93;65.70;99362.56;5016718;28;45363;-55
2022/09/29 03:40:37;;;;;;;;;3.75;3.75;;;;;12.92;65.76;99369.13;5016636;28;45377;-51
2022/09/29 03:43:02;;;;;;;;;2.00;2.00;;;;;12.97;65.79;99362.84;4999164;28;45420;-52
2022/09/29 03:45:27;;;;;;;;;1.00;1.00;;;;;12.86;65.56;99359.19;5016451;28;45808;-56
2022/09/29 03:47:53;;;;;;;;;4.00;3.25;;;;;12.94;65.58;99366.13;5016553;28;45503;-55
2022/09/29 03:50:18;;;;;;;;;2.75;2.00;;;;;12.63;65.60;99322.63;4999245;28;45778;-55
2022/09/29 03:52:44;;;;;;;;;3.00;3.00;;;;;12.89;66.03;99369.66;4998562;28;45501;-55
2022/09/29 03:55:09;;;;;;;;;2.50;2.00;;;;;12.83;65.99;99357.78;4998561;28;47060;-56
2022/09/29 03:57:35;;;;;;;;;4.00;3.00;;;;;12.92;65.97;99373.81;4998000;28;45489;-56
2022/09/29 04:00:31;;;;;;;;;3.00;3.00;;;;;12.89;66.45;99372.41;5017333;28;45369;-59
2022/09/29 04:02:58;;;;;;;;;2.00;2.00;;;;;12.91;66.13;99372.97;5017077;28;45340;-54
2022/09/29 04:05:24;;;;;;;;;4.20;3.20;;;;;12.90;66.07;99370.50;4998477;28;47292;-56
2022/09/29 04:07:49;;;;;;;;;2.50;2.50;;;;;12.92;66.07;99373.81;4998195;28;45400;-57
2022/09/29 04:10:15;;;;;;;;;1.50;1.00;;;;;12.45;66.74;99312.81;5015839;28;45322;-57
2022/09/29 04:12:40;;;;;;;;;5.00;3.00;;;;;12.77;67.17;99369.84;5016417;28;45577;-56
2022/09/29 04:15:06;;;;;;;;;3.50;2.25;;;;;12.46;67.24;99329.06;5016224;28;46689;-56
2022/09/29 04:17:32;;;;;;;;;3.60;3.20;;;;;12.75;67.09;99374.75;4981982;28;46144;-54
2022/09/29 04:19:57;;;;;;;;;2.00;2.00;;;;;12.80;66.93;99379.50;5016172;28;45396;-55
2022/09/29 04:22:23;;;;;;;;;4.00;4.00;;;;;12.77;67.06;99380.00;5016395;28;45481;-55
2022/09/29 04:24:49;;;;;;;;;3.50;3.00;;;;;12.75;67.19;99380.25;5016001;28;45498;-55
2022/09/29 04:27:15;;;;;;;;;6.20;4.60;;;;;12.78;67.17;99388.00;5015733;28;45405;-54
2022/09/29 04:29:40;;;;;;;;;4.00;2.25;;;;;12.70;67.27;99380.22;4998478;28;45421;-57
2022/09/29 04:32:07;;;;;;;;;3.50;3.50;;;;;12.78;67.04;99392.66;5015829;28;45408;-57
2022/09/29 04:34:33;;;;;;;;;4.00;4.00;;;;;12.16;67.72;99302.03;4981671;28;46520;-56
2022/09/29 04:36:59;;;;;;;;;2.50;2.50;;;;;12.64;67.51;99386.75;4998248;28;45282;-55
2022/09/29 04:39:24;;;;;;;;;1.25;1.25;;;;;12.70;67.66;99391.25;4998249;28;45409;-55
2022/09/29 04:41:50;;;;;;;;;3.50;2.25;;;;;12.68;67.61;99382.38;4982399;28;45566;-55
2022/09/29 04:44:15;;;;;;;;;4.50;4.00;;;;;12.51;68.05;99372.31;5015548;28;45933;-56
2022/09/29 04:46:41;;;;;;;;;4.25;4.00;;;;;12.56;67.76;99371.53;5015765;28;45504;-55
2022/09/29 04:49:06;;;;;;;;;4.50;4.00;;;;;12.68;67.53;99383.22;4998083;28;45525;-54
2022/09/29 04:51:32;;;;;;;;;2.25;2.25;;;;;12.54;67.77;99382.78;5016298;28;45832;-55
2022/09/29 04:53:58;;;;;;;;;5.00;4.00;;;;;12.52;68.19;99386.88;4946553;28;46260;-55
2022/09/29 04:56:23;;;;;;;;;2.50;2.50;;;;;12.46;68.43;99391.50;5006424;28;45443;-57
2022/09/29 04:58:49;;;;;;;;;5.50;4.25;;;;;12.51;68.30;99391.59;4997619;28;45531;-56
2022/09/29 05:01:15;;;;;;;;;3.00;3.00;;;;;12.47;68.53;99390.41;5015516;28;45419;-55
2022/09/29 05:03:40;;;;;;;;;4.25;3.25;;;;;12.40;68.41;99392.53;5015403;28;46269;-56
2022/09/29 05:06:08;;;;;;;;;3.25;3.25;;;;;12.40;68.57;99389.78;4997510;28;45528;-56
2022/09/29 05:08:33;;;;;;;;;4.20;3.00;;;;;12.47;68.15;99396.78;4997985;28;45364;-55
2022/09/29 05:11:02;;;;;;;;;5.00;4.00;;;;;12.53;68.32;99394.91;5015856;28;45228;-57
2022/09/29 05:13:28;;;;;;;;;2.60;2.60;;;;;12.52;68.26;99384.13;5015209;28;45505;-60
2022/09/29 05:15:56;;;;;;;;;5.00;2.50;;;;;12.38;68.20;99356.22;5015161;28;45457;-56
2022/09/29 05:18:23;;;;;;;;;5.80;2.40;;;;;12.49;68.09;99370.91;4997784;28;45581;-56
2022/09/29 05:20:49;;;;;;;;;4.20;3.00;;;;;12.61;67.95;99388.91;5015164;28;45552;-57
2022/09/29 05:23:14;;;;;;;;;3.25;3.00;;;;;12.63;68.07;99382.34;4997066;28;46125;-58
2022/09/29 05:25:40;;;;;;;;;4.75;4.75;;;;;12.69;67.97;99386.78;4997616;28;45498;-56
2022/09/29 05:28:05;;;;;;;;;5.75;3.00;;;;;12.68;68.12;99385.97;5014729;28;45514;-57
2022/09/29 05:30:31;;;;;;;;;3.00;3.00;;;;;12.50;67.73;99361.56;4997727;28;45258;-57
2022/09/29 05:32:56;;;;;;;;;9.00;4.50;;;;;12.67;67.99;99394.50;5014600;28;45922;-56
2022/09/29 05:35:22;;;;;;;;;4.00;4.00;;;;;12.70;67.66;99402.25;5015261;28;45485;-56
2022/09/29 05:37:47;;;;;;;;;3.00;2.00;;;;;12.59;68.05;99402.13;5015419;28;45357;-55
2022/09/29 05:40:13;;;;;;;;;3.75;3.75;;;;;12.56;68.01;99404.56;5014898;28;45454;-56
2022/09/29 05:42:39;;;;;;;;;6.75;6.75;;;;;12.41;67.83;99380.44;5002050;28;45432;-55
2022/09/29 05:45:07;;;;;;;;;7.80;5.00;;;;;12.59;67.84;99404.88;5033215;28;45396;-58
2022/09/29 05:47:33;;;;;;;;;3.00;3.00;;;;;12.62;67.89;99411.78;5033584;28;45392;-55
2022/09/29 05:49:58;;;;;;;;;5.00;4.00;;;;;12.61;67.82;99410.13;5035389;28;45570;-56
2022/09/29 05:52:24;;;;;;;;;5.00;3.25;;;;;12.50;68.36;99411.09;5034345;28;46619;-57
2022/09/29 05:54:50;;;;;;;;;3.25;3.00;;;;;12.33;68.39;99381.75;5034971;28;45215;-59
2022/09/29 05:57:15;;;;;;;;;7.00;4.50;;;;;12.45;68.65;99400.88;5034310;28;45325;-57
2022/09/29 05:59:41;;;;;;;;;4.25;4.25;;;;;12.30;68.84;99377.59;5035044;28;45430;-57
2022/09/29 06:02:07;;;;;;;;;7.50;5.00;;;;;12.48;68.39;99400.34;5034401;28;46076;-55
2022/09/29 06:04:34;;;;;;;;;6.80;4.00;;;;;12.52;68.32;99406.16;5034530;28;45480;-55
2022/09/29 06:07:00;;;;;;;;;9.40;5.40;;;;;12.54;68.54;99404.81;5017154;28;45468;-58
2022/09/29 06:09:25;;;;;;;;;9.25;5.00;;;;;12.58;68.26;99403.22;5034420;28;45492;-57
2022/09/29 06:11:51;;;;;;;;;6.25;5.25;;;;;12.54;68.22;99412.25;5034648;28;45646;-55
2022/09/29 06:14:16;;;;;;;;;7.50;5.00;;;;;12.46;68.55;99414.38;5016137;28;45434;-56
2022/09/29 06:16:43;;;;;;;;;5.00;4.25;;;;;12.53;68.32;99408.66;5034704;28;45378;-55
2022/09/29 06:19:08;;;;;;;;;4.20;4.20;;;;;12.53;68.54;99414.16;5034113;28;45591;-55
2022/09/29 06:21:36;;;;;;;;;7.75;6.25;;;;;12.52;68.37;99407.00;5033891;28;45979;-55
2022/09/29 06:24:02;;;;;;;;;6.20;6.20;;;;;12.35;68.53;99379.56;5006323;28;45534;-56
2022/09/29 06:26:28;;;;;;;;;6.25;5.00;;;;;12.52;68.50;99404.25;4996669;28;45470;-56
2022/09/29 06:28:53;;;;;;;;;11.25;7.00;;;;;12.60;68.32;99412.03;4980405;28;45435;-56
2022/09/29 06:31:21;;;;;;;;;9.00;6.00;;;;;12.63;68.34;99420.88;4996659;28;45545;-55
2022/09/29 06:33:46;;;;;;;;;6.00;4.40;;;;;12.62;68.13;99417.28;5017733;28;45509;-57
2022/09/29 06:39:28;;;;;;;;;6.00;6.00;;;;;12.69;68.34;99423.44;5012484;28;45627;-56
2022/09/29 06:41:55;;;;;;;;;8.50;6.00;;;;;12.70;68.16;99419.56;4983555;28;48686;-57
2022/09/29 06:44:23;;;;;;;;;8.20;7.80;;;;;12.72;68.03;99411.88;5017838;28;45398;-55
2022/09/29 06:46:50;;;;;;;;;5.60;5.00;;;;;12.72;67.99;99422.06;4964021;28;45443;-57
2022/09/29 06:49:15;;;;;;;;;5.00;5.00;;;;;12.14;67.84;99329.81;4993019;28;45589;-57
2022/09/29 06:51:42;;;;;;;;;6.50;6.00;;;;;12.78;68.11;99425.72;5017900;28;45615;-57
2022/09/29 06:54:11;;;;;;;;;4.00;4.00;;;;;12.76;68.17;99426.00;5000211;28;45380;-57
2022/09/29 06:56:37;;;;;;;;;7.20;6.60;;;;;12.80;68.06;99426.31;4999957;28;46011;-57
2022/09/29 06:59:02;;;;;;;;;7.00;5.00;;;;;12.80;68.23;99426.31;5017913;28;45474;-58
2022/09/29 07:01:28;;;;;;;;;5.00;5.00;;;;;12.81;67.72;99430.72;4999800;28;45567;-58
2022/09/29 07:03:53;;;;;;;;;6.75;5.75;;;;;12.72;68.15;99427.59;4999558;28;45490;-57
2022/09/29 07:06:19;;;;;;;;;6.75;6.75;;;;;12.55;67.81;99394.66;4983568;28;45489;-57
2022/09/29 07:08:44;;;;;;;;;9.00;7.25;;;;;12.80;68.07;99434.56;4999605;28;45585;-55
2022/09/29 07:11:10;;;;;;;;;7.00;5.25;;;;;12.82;67.69;99432.38;4999679;28;48515;-56
2022/09/29 07:13:36;;;;;;;;;6.00;6.00;;;;;12.78;67.77;99436.72;5017215;28;45465;-55
2022/09/29 07:16:12;;;;;;;;;7.50;7.25;;;;;12.76;68.12;99442.50;5017617;28;45341;-54
2022/09/29 07:18:39;;;;;;;;;8.40;5.60;;;;;12.79;68.03;99439.22;4999831;28;45360;-56
2022/09/29 07:21:05;;;;;;;;;10.20;10.20;;;;;12.53;67.31;99392.16;5017009;28;46009;-54
2022/09/29 07:23:31;;;;;;;;;8.20;8.20;;;;;12.61;67.69;99386.16;4998884;28;45420;-59
2022/09/29 07:25:57;;;;;;;;;7.50;5.75;;;;;12.91;67.75;99438.25;5017315;28;45481;-57
2022/09/29 07:28:22;;;;;;;;;9.00;9.00;;;;;12.98;67.02;99447.94;4995703;28;45453;-58
2022/09/29 07:30:58;;;;;;;;;8.75;8.75;;;;;12.98;67.57;99445.19;4996668;28;46550;-58
2022/09/29 07:33:23;;;;;;;;;9.60;9.60;;;;;13.02;67.12;99454.59;5004865;28;45466;-60
2022/09/29 07:35:52;;;;;;;;;6.00;6.00;;;;;12.85;67.48;99420.81;5017807;28;45487;-58
2022/09/29 07:38:17;;;;;;;;;11.20;8.40;;;;;13.04;67.26;99457.13;5017572;28;45455;-59
2022/09/29 07:40:43;;;;;;;;;15.75;14.25;;;;;12.92;67.29;99461.94;5035276;28;46118;-60
2022/09/29 07:43:08;;;;;;;;;12.25;9.50;;;;;12.99;67.54;99459.81;5033930;28;45368;-59
2022/09/29 07:45:34;;;;;;;;;8.75;6.75;;;;;13.11;67.44;99465.16;5033446;28;45385;-59
2022/09/29 07:48:00;;;;;;;;;7.25;7.25;;;;;13.13;66.99;99461.03;5017406;28;45564;-59
2022/09/29 07:50:25;;;;;;;;;10.00;9.00;;;;;13.20;66.92;99465.53;4972982;28;47334;-60
2022/09/29 07:52:51;;;;;;;;;10.75;9.00;;;;;13.26;66.63;99467.22;5015154;28;45357;-60
2022/09/29 07:55:17;;;;;;;;;10.00;8.25;;;;;13.27;66.17;99477.16;4992922;28;45547;-60
2022/09/29 07:57:42;;;;;;;;;13.00;10.50;;;;;13.29;66.63;99475.00;4985729;28;45550;-59
2022/09/29 08:00:08;;;;;;;;;9.00;8.50;;;;;13.33;66.23;99481.63;5015328;28;46188;-59
2022/09/29 08:02:34;;;;;;;;;12.80;10.40;;;;;13.34;66.14;99483.28;5014937;28;45404;-59
2022/09/29 08:05:00;;;;;;;;;9.25;6.00;;;;;13.39;66.57;99485.25;4997127;28;45477;-60
2022/09/29 08:07:25;;;;;;;;;13.25;9.50;;;;;13.35;65.66;99484.94;5007051;28;45463;-60
2022/09/29 08:09:51;;;;;;;;;10.75;10.75;;;;;13.29;66.05;99486.00;5003942;28;46471;-60
2022/09/29 08:12:16;;;;;;;;;7.50;7.50;;;;;13.40;65.82;99490.50;5016484;28;45747;-60
2022/09/29 08:14:42;;;;;;;;;11.75;10.00;;;;;13.44;66.10;99496.31;5026216;28;45386;-59
2022/09/29 08:17:07;;;;;;;;;10.50;10.50;;;;;13.36;65.26;99497.66;4977908;28;45534;-59
2022/09/29 08:19:33;;;;;;;;;9.50;9.50;;;;;13.27;65.54;99497.28;5013156;28;46299;-58
2022/09/29 08:21:59;;;;;;;;;14.25;13.75;;;;;13.13;66.06;99494.09;5021613;28;45449;-59
2022/09/29 08:24:24;;;;;;;;;9.25;7.75;;;;;13.20;65.65;99498.56;5025308;28;45418;-61
2022/09/29 08:26:50;;;;;;;;;12.75;9.25;;;;;13.24;65.92;99500.53;5008326;28;45524;-62
2022/09/29 08:29:15;;;;;;;;;13.75;10.50;;;;;13.17;65.60;99497.16;5013786;28;45946;-59
2022/09/29 08:31:42;;;;;;;;;14.00;12.25;;;;;13.11;64.49;99500.97;5014041;28;45395;-59
2022/09/29 08:34:08;;;;;;;;;12.80;11.60;;;;;13.00;65.89;99509.13;5021261;28;45488;-58
2022/09/29 08:36:35;;;;;;;;;12.00;11.50;;;;;12.82;66.26;99507.53;5034631;28;45591;-58
2022/09/29 08:39:04;;;;;;;;;11.80;9.20;;;;;12.91;66.23;99512.59;5034074;28;45708;-59
2022/09/29 08:41:37;;;;;;;;;9.40;9.20;;;;;12.98;66.57;99518.75;5034456;28;45370;-59
2022/09/29 08:44:25;;;;;;;;;10.20;10.20;;;;;13.06;65.52;99514.66;5028004;28;46483;-58
2022/09/29 08:46:56;;;;;;;;;10.00;9.00;;;;;13.08;65.98;99513.31;5032587;28;45295;-56
2022/09/29 08:49:25;;;;;;;;;10.40;9.80;;;;;12.93;65.05;99483.72;4992185;28;45545;-60
2022/09/29 08:51:53;;;;;;;;;10.80;9.00;;;;;13.04;65.30;99490.16;4981769;28;45395;-54
2022/09/29 08:54:32;;;;;;;;;9.00;9.00;;;;;13.18;65.29;99489.75;4994371;28;45414;-56
2022/09/29 08:56:58;;;;;;;;;6.80;6.80;;;;;13.33;64.92;99514.69;5016638;28;45569;-56
2022/09/29 08:59:26;;;;;;;;;9.80;7.40;;;;;13.23;64.53;99506.34;4998022;28;46418;-57
2022/09/29 09:01:58;;;;;;;;;6.00;6.00;;;;;13.37;64.16;99537.03;4996937;28;45408;-57
2022/09/29 09:05:21;;;;;;;;;8.00;7.00;;;;;13.41;64.02;99532.69;5014214;28;45425;-58
2022/09/29 09:08:30;;;;;;;;;8.20;8.20;;;;;13.38;64.37;99533.19;4972383;28;45387;-53
2022/09/29 09:11:05;;;;;;;;;6.40;6.40;;;;;13.35;64.14;99523.53;4948370;28;45586;-57
2022/09/29 09:13:46;;;;;;;;;9.60;5.00;;;;;13.33;64.19;99527.66;4982332;28;45882;-59
2022/09/29 09:16:14;;;;;;;;;5.20;4.20;;;;;13.36;64.60;99535.38;5014317;28;45448;-57
2022/09/29 09:19:02;;;;;;;;;7.40;5.80;;;;;13.35;63.96;99542.00;4996357;28;45309;-60
2022/09/29 09:21:37;;;;;;;;;10.80;7.40;;;;;13.44;63.66;99534.91;4995952;28;46518;-59
2022/09/29 09:24:21;;;;;;;;;10.00;8.80;;;;;13.47;63.48;99537.19;5029082;28;45402;-60
2022/09/29 09:26:47;;;;;;;;;5.60;5.60;;;;;13.54;63.58;99525.94;5014352;28;45326;-58
2022/09/29 09:29:15;;;;;;;;;6.50;5.25;;;;;13.38;63.44;99509.22;5014073;28;45465;-58
2022/09/29 09:31:43;;;;;;;;;7.20;5.20;;;;;13.02;63.09;99440.00;5013964;28;45421;-60
2022/09/29 09:34:16;;;;;;;;;4.60;4.60;;;;;13.70;62.59;99529.66;4997311;28;45352;-58
2022/09/29 09:36:51;;;;;;;;;9.20;8.20;;;;;13.64;63.67;99503.13;5015957;28;45423;-59
2022/09/29 09:39:25;;;;;;;;;5.60;5.60;;;;;13.72;63.00;99485.28;5016482;28;45437;-59
2022/09/29 09:41:51;;;;;;;;;4.80;4.80;;;;;14.02;63.05;99522.44;5015565;28;45634;-59
2022/09/29 09:44:20;;;;;;;;;5.40;5.40;;;;;13.99;62.49;99512.81;5015980;28;45373;-59
2022/09/29 09:46:50;;;;;;;;;14.00;7.80;;;;;13.96;61.89;99541.75;5031838;28;45380;-59
2022/09/29 09:49:36;;;;;;;;;8.00;8.00;;;;;13.85;62.74;99551.03;5010727;28;45398;-58
2022/09/29 09:52:41;;;;;;;;;6.00;6.00;;;;;13.81;62.71;99547.13;5018909;28;47458;-58
2022/09/29 09:55:14;;;;;;;;;9.80;7.60;;;;;13.89;63.02;99556.84;4991557;28;45922;-59
2022/09/29 09:57:59;;;;;;;;;8.20;7.20;;;;;13.95;62.71;99548.38;4995023;28;45438;-59
2022/09/29 10:00:37;;;;;;;;;7.20;7.20;;;;;13.86;63.15;99552.69;5001523;28;45559;-62
2022/09/29 10:03:05;;;;;;;;;10.40;6.40;;;;;13.91;63.07;99554.66;4994430;28;46521;-55
2022/09/29 10:05:41;;;;;;;;;7.40;6.80;;;;;13.88;62.54;99558.75;4995690;28;45710;-62
2022/09/29 10:08:17;;;;;;;;;9.40;6.80;;;;;13.78;62.99;99553.19;5012943;28;45385;-59
2022/09/29 10:10:43;;;;;;;;;6.80;6.80;;;;;13.72;62.62;99554.22;5011268;28;45835;-60
2022/09/29 10:13:11;;;;;;;;;9.20;9.20;;;;;13.71;62.82;99555.31;5013628;28;46156;-59
2022/09/29 10:15:37;;;;;;;;;9.40;9.40;;;;;13.68;62.34;99564.94;5002241;28;45969;-60
2022/09/29 10:18:24;;;;;;;;;9.20;8.60;;;;;13.63;62.56;99560.22;4994929;28;45320;-61
2022/09/29 10:20:50;;;;;;;;;7.00;7.00;;;;;13.63;62.91;99570.41;4993267;28;45343;-60
2022/09/29 10:23:27;;;;;;;;;11.50;9.25;;;;;13.68;62.80;99563.00;4986998;28;46126;-58
2022/09/29 10:26:21;;;;;;;;;7.80;6.00;;;;;13.67;62.92;99558.59;5016307;28;45516;-61
2022/09/29 10:28:49;;;;;;;;;12.80;11.80;;;;;13.64;61.81;99567.41;5002329;28;45587;-60
2022/09/29 10:31:25;;;;;;;;;8.20;6.40;;;;;13.55;62.54;99571.69;5014514;28;45476;-60
2022/09/29 10:33:59;;;;;;;;;8.20;7.60;;;;;13.58;62.28;99570.34;5013198;28;47175;-62
2022/09/29 10:36:27;;;;;;;;;10.40;8.80;;;;;13.02;62.40;99478.56;5031093;28;45527;-58
2022/09/29 10:38:53;;;;;;;;;12.00;10.20;;;;;13.59;63.19;99577.53;5014310;28;45498;-58
2022/09/29 10:41:19;;;;;;;;;15.00;12.00;;;;;13.64;63.54;99575.66;5014019;28;45730;-61
2022/09/29 10:43:45;;;;;;;;;10.25;10.25;;;;;13.64;64.29;99570.16;4967444;28;46371;-62
2022/09/29 10:46:37;;;;;;;;;14.00;13.60;;;;;13.67;64.03;99574.31;5032158;28;45683;-59
2022/09/29 10:49:12;;;;;;;;;14.60;13.20;;;;;13.69;63.97;99578.47;5015219;28;45346;-61
2022/09/29 10:51:38;;;;;;;;;11.80;9.60;;;;;13.70;63.85;99571.03;5002096;28;45678;-59
2022/09/29 10:54:07;;;;;;;;;13.25;12.00;;;;;13.78;63.99;99581.56;4988730;28;45590;-61
2022/09/29 10:56:33;;;;;;;;;13.80;12.00;;;;;13.78;64.10;99572.47;4994871;28;45520;-59
2022/09/29 10:58:59;;;;;;;;;16.00;13.75;;;;;13.85;64.07;99575.00;5013370;28;45509;-60
2022/09/29 11:01:25;;;;;;;;;16.40;13.20;;;;;13.90;63.57;99588.84;5012830;28;45703;-59
2022/09/29 11:04:07;;;;;;;;;11.75;11.75;;;;;13.80;64.41;99586.81;4968552;28;46572;-60
2022/09/29 11:09:41;;;;;;;;;9.80;8.40;;;;;13.63;64.72;99589.72;5004336;28;45749;-58
2022/09/29 11:12:28;;;;;;;;;11.40;8.40;;;;;13.58;65.24;99587.72;5014731;28;45552;-59
2022/09/29 11:14:54;;;;;;;;;13.00;11.00;;;;;13.60;64.26;99596.56;5032767;28;47298;-60
2022/09/29 11:17:22;;;;;;;;;9.50;9.50;;;;;13.54;63.66;99595.69;5032559;28;45295;-55
2022/09/29 11:19:47;;;;;;;;;7.80;6.00;;;;;13.46;63.65;99600.84;5036212;28;45497;-62
2022/09/29 11:22:25;;;;;;;;;11.50;8.00;;;;;13.05;64.51;99565.34;5036217;28;45452;-60
2022/09/29 11:24:58;;;;;;;;;11.00;8.80;;;;;13.26;65.08;99608.59;5013681;28;46261;-61
2022/09/29 11:27:42;;;;;;;;;10.40;8.80;;;;;13.21;65.45;99627.81;4998392;28;45359;-60
2022/09/29 11:30:16;;;;;;;;;10.60;7.00;;;;;12.98;66.58;99607.69;5016776;28;45505;-59
2022/09/29 11:32:44;;;;;;;;;14.00;9.00;;;;;12.87;67.12;99605.91;5015454;28;45336;-60
2022/09/29 11:35:13;;;;;;;;;7.80;7.80;;;;;12.97;68.24;99627.25;4997309;28;47612;-60
2022/09/29 11:38:20;;;;;;;;;11.00;10.00;;;;;12.98;68.88;99634.41;5016053;28;45905;-61
2022/09/29 11:40:46;;;;;;;;;11.40;10.80;;;;;12.96;69.88;99629.16;4998697;28;45494;-60
2022/09/29 11:43:44;;;;;;;;;13.75;12.25;;;;;12.78;71.06;99619.28;5016202;28;45311;-60
2022/09/29 11:46:34;;;;;;;;;12.00;12.00;;;;;12.92;70.45;99640.94;4980079;28;47196;-60
2022/09/29 11:49:36;;;;;;;;;18.60;17.60;;;;;12.92;71.90;99641.75;5015248;28;45286;-61
2022/09/29 11:52:16;;;;;;;;;17.60;14.60;;;;;12.96;71.85;99642.94;4975434;28;45560;-59